Time;durP1;ratioP1;P1;durP2;ratioP2;P2;SDS_P1;SDS_P2;PMS_P1;PMS_P2;Temp;Humidity;BMP_temperature;BMP_pressure;BME280_temperature;BME280_humidity;BME280_pressure;Samples;Min_cycle;Max_cycle;Signal;HPM_P1;HPM_P2
2023/10/26 00:02:13;;;;;;;0.30;0.20;;;;;;;13.42;94.55;98311.31;5031704;28;20516;-49
2023/10/26 00:04:39;;;;;;;0.30;0.20;;;;;;;13.54;94.84;98317.59;5031652;28;20932;-49
2023/10/26 00:07:06;;;;;;;0.30;0.20;;;;;;;13.62;94.04;98317.91;5032049;28;20423;-49
2023/10/26 00:09:32;;;;;;;0.30;0.20;;;;;;;13.57;93.08;98320.91;5031873;28;20798;-49
2023/10/26 00:11:59;;;;;;;0.30;0.20;;;;;;;13.69;92.67;98318.28;5032020;28;20478;-49
2023/10/26 00:14:25;;;;;;;0.30;0.20;;;;;;;13.58;92.97;98314.63;5032481;28;20472;-49
2023/10/26 00:16:52;;;;;;;0.30;0.20;;;;;;;13.58;92.58;98314.63;5035696;28;20422;-50
2023/10/26 00:19:18;;;;;;;0.30;0.20;;;;;;;13.56;92.72;98331.69;5035972;28;20538;-49
2023/10/26 00:21:45;;;;;;;0.30;0.20;;;;;;;13.46;92.98;98325.31;5025876;28;20475;-49
2023/10/26 00:24:12;;;;;;;0.30;0.20;;;;;;;13.90;92.28;98319.41;5034288;28;20418;-49
2023/10/26 00:26:40;;;;;;;0.30;0.20;;;;;;;13.67;92.38;98318.41;5035708;28;20451;-49
2023/10/26 00:29:07;;;;;;;0.30;0.20;;;;;;;13.60;93.47;98330.50;5035480;28;20443;-49
2023/10/26 00:31:33;;;;;;;0.30;0.20;;;;;;;13.68;93.13;98321.94;5035541;28;20525;-48
2023/10/26 00:33:59;;;;;;;0.30;0.20;;;;;;;13.55;92.66;98329.97;5035513;28;20497;-49
2023/10/26 00:36:26;;;;;;;0.30;0.20;;;;;;;13.81;92.90;98336.94;5035620;28;20432;-49
2023/10/26 00:38:52;;;;;;;0.30;0.20;;;;;;;13.64;93.61;98332.00;5035220;28;20979;-49
2023/10/26 00:41:19;;;;;;;0.30;0.20;;;;;;;13.72;92.86;98340.31;5035286;28;21347;-49
2023/10/26 00:43:47;;;;;;;0.30;0.20;;;;;;;13.68;92.72;98340.63;5035196;28;20809;-48
2023/10/26 00:46:14;;;;;;;0.30;0.20;;;;;;;13.67;94.01;98345.09;5035202;28;20505;-49
2023/10/26 00:48:40;;;;;;;0.30;0.20;;;;;;;13.84;93.15;98343.88;5035357;28;20447;-49
2023/10/26 00:51:07;;;;;;;0.30;0.20;;;;;;;13.90;92.48;98344.28;5030383;28;20443;-49
2023/10/26 00:53:35;;;;;;;0.30;0.20;;;;;;;13.89;92.99;98350.59;5008835;28;20487;-49
2023/10/26 00:56:01;;;;;;;0.30;0.20;;;;;;;13.83;93.57;98348.38;5030536;28;20433;-49
2023/10/26 00:58:29;;;;;;;0.30;0.20;;;;;;;13.58;94.23;98349.31;5009298;28;20526;-49
2023/10/26 01:00:56;;;;;;;0.30;0.20;;;;;;;13.57;94.38;98354.78;5034338;28;20553;-49
2023/10/26 01:03:24;;;;;;;0.30;0.20;;;;;;;13.36;94.54;98356.28;5022794;28;20458;-49
2023/10/26 01:05:50;;;;;;;0.30;0.20;;;;;;;13.57;94.85;98357.44;5034933;28;20493;-49
2023/10/26 01:08:17;;;;;;;0.30;0.20;;;;;;;13.79;94.26;98367.41;5035088;28;20485;-49
2023/10/26 01:10:44;;;;;;;0.30;0.20;;;;;;;13.56;93.87;98374.38;5034782;28;20500;-50
2023/10/26 01:13:11;;;;;;;0.30;0.20;;;;;;;13.63;93.45;98368.50;5034739;28;20432;-50
2023/10/26 01:15:37;;;;;;;0.30;0.20;;;;;;;13.60;93.42;98370.56;5034787;28;20519;-49
2023/10/26 01:18:04;;;;;;;0.30;0.20;;;;;;;13.51;94.48;98373.88;5035014;28;20433;-48
2023/10/26 01:20:30;;;;;;;0.30;0.20;;;;;;;13.41;94.28;98370.16;5034685;28;20508;-49
2023/10/26 01:22:57;;;;;;;0.30;0.20;;;;;;;13.38;94.56;98378.38;5010231;28;20436;-49
2023/10/26 01:25:23;;;;;;;0.30;0.20;;;;;;;13.56;94.42;98379.72;5034443;28;20791;-48
2023/10/26 01:27:50;;;;;;;0.30;0.20;;;;;;;13.38;94.23;98378.38;5026697;28;21017;-49
2023/10/26 01:30:16;;;;;;;0.30;0.20;;;;;;;13.32;94.48;98379.69;5028977;28;20838;-49
2023/10/26 01:32:43;;;;;;;0.73;0.73;;;;;;;13.30;93.41;98378.94;5017058;28;20455;-48
2023/10/26 01:35:10;;;;;;;0.30;0.20;;;;;;;13.19;93.33;98374.34;5034195;28;20997;-48
2023/10/26 01:37:37;;;;;;;0.30;0.20;;;;;;;13.34;93.77;98377.75;5034250;28;20462;-49
2023/10/26 01:40:06;;;;;;;0.30;0.20;;;;;;;13.29;94.24;98372.75;5034252;28;20530;-48
2023/10/26 01:42:33;;;;;;;0.30;0.20;;;;;;;13.37;94.60;98371.34;5034190;28;20500;-49
2023/10/26 01:44:59;;;;;;;0.30;0.20;;;;;;;13.38;94.17;98373.03;5034118;28;20970;-49
2023/10/26 01:47:26;;;;;;;0.30;0.20;;;;;;;13.33;94.65;98368.03;5034264;28;20852;-49
2023/10/26 01:49:52;;;;;;;0.30;0.20;;;;;;;13.29;94.44;98366.53;5034119;28;20422;-49
2023/10/26 01:52:19;;;;;;;0.30;0.20;;;;;;;13.12;94.33;98372.16;5028611;28;20453;-48
2023/10/26 01:54:46;;;;;;;0.30;0.20;;;;;;;13.12;94.60;98373.03;5030780;28;20959;-49
2023/10/26 01:57:13;;;;;;;0.30;0.20;;;;;;;13.16;94.37;98379.88;5023361;28;20646;-49
2023/10/26 01:59:40;;;;;;;0.30;0.20;;;;;;;13.32;94.95;98379.69;5030713;28;20468;-49
2023/10/26 02:02:06;;;;;;;0.30;0.20;;;;;;;13.33;94.88;98378.72;5033803;28;20541;-49
2023/10/26 02:04:32;;;;;;;0.30;0.20;;;;;;;13.22;95.14;98378.59;5033677;28;20422;-49
2023/10/26 02:07:00;;;;;;;0.30;0.20;;;;;;;13.01;95.00;98381.75;5033844;28;20451;-49
2023/10/26 02:09:26;;;;;;;0.30;0.20;;;;;;;13.11;94.42;98376.66;5033527;28;20818;-48
2023/10/26 02:11:53;;;;;;;0.30;0.20;;;;;;;13.10;94.39;98374.94;5033974;28;20560;-49
2023/10/26 02:14:19;;;;;;;0.30;0.20;;;;;;;13.13;94.37;98385.41;5033492;28;20873;-50
2023/10/26 02:16:46;;;;;;;0.30;0.20;;;;;;;13.12;94.13;98381.03;5033793;28;20444;-48
2023/10/26 02:19:15;;;;;;;0.30;0.20;;;;;;;13.43;93.36;98385.13;5033535;28;20451;-49
2023/10/26 02:21:43;;;;;;;0.30;0.20;;;;;;;13.46;93.02;98387.56;5023631;28;20844;-49
2023/10/26 02:24:09;;;;;;;0.30;0.20;;;;;;;13.20;92.86;98396.53;5031315;28;20932;-49
2023/10/26 02:26:36;;;;;;;0.30;0.20;;;;;;;13.34;92.97;98394.63;5033724;28;20531;-49
2023/10/26 02:29:02;;;;;;;0.30;0.20;;;;;;;13.27;92.18;98390.66;5033234;28;20989;-48
2023/10/26 02:31:29;;;;;;;0.30;0.20;;;;;;;13.53;91.39;98387.97;5033253;28;21001;-48
2023/10/26 02:33:55;;;;;;;0.30;0.20;;;;;;;13.49;91.12;98390.00;5033232;28;20547;-49
2023/10/26 02:36:22;;;;;;;0.30;0.20;;;;;;;13.26;91.67;98396.94;5033315;28;20422;-49
2023/10/26 02:38:48;;;;;;;0.30;0.20;;;;;;;13.12;91.50;98389.03;5032428;28;20547;-48
2023/10/26 02:41:15;;;;;;;0.30;0.20;;;;;;;12.98;91.49;98394.47;5033255;28;20478;-49
2023/10/26 02:43:42;;;;;;;0.30;0.20;;;;;;;13.02;91.18;98387.97;5033173;28;20444;-49
2023/10/26 02:46:09;;;;;;;0.30;0.20;;;;;;;12.92;92.03;98386.91;5033112;28;20452;-48
2023/10/26 02:48:35;;;;;;;0.30;0.20;;;;;;;12.84;92.84;98383.88;5032726;28;20804;-49
2023/10/26 02:51:03;;;;;;;0.30;0.20;;;;;;;12.85;92.48;98382.94;5028808;28;20542;-48
2023/10/26 02:53:29;;;;;;;0.30;0.20;;;;;;;12.80;93.17;98383.25;5031624;28;20459;-48
2023/10/26 02:55:56;;;;;;;0.30;0.20;;;;;;;12.84;92.84;98376.75;5028340;28;20479;-49
2023/10/26 02:58:22;;;;;;;0.30;0.20;;;;;;;12.82;92.89;98375.16;5019677;28;20452;-49
2023/10/26 03:00:49;;;;;;;0.30;0.20;;;;;;;12.78;93.17;98387.00;5032516;28;20937;-49
2023/10/26 03:03:15;;;;;;;0.30;0.20;;;;;;;12.82;92.94;98396.47;5032525;28;20958;-48
2023/10/26 03:05:43;;;;;;;0.30;0.20;;;;;;;12.88;93.10;98385.38;5032493;28;20818;-49
2023/10/26 03:08:11;;;;;;;0.30;0.20;;;;;;;13.01;92.51;98372.91;5032448;28;20517;-49
2023/10/26 03:10:38;;;;;;;0.30;0.20;;;;;;;12.94;92.31;98369.81;5032551;28;21021;-49
2023/10/26 03:13:04;;;;;;;0.30;0.20;;;;;;;13.01;92.80;98379.09;5007029;28;20451;-49
2023/10/26 03:15:31;;;;;;;0.30;0.20;;;;;;;13.15;92.90;98378.13;5032384;28;20487;-50
2023/10/26 03:17:58;;;;;;;0.30;0.20;;;;;;;13.03;93.60;98374.53;5032680;28;20503;-49
2023/10/26 03:20:24;;;;;;;0.30;0.20;;;;;;;13.10;93.62;98374.94;5032150;28;20447;-49
2023/10/26 03:22:51;;;;;;;0.30;0.20;;;;;;;12.89;93.26;98368.44;5020874;28;20458;-49
2023/10/26 03:25:18;;;;;;;0.30;0.20;;;;;;;12.95;93.79;98362.69;5032572;28;20448;-48
2023/10/26 03:27:44;;;;;;;0.30;0.20;;;;;;;12.95;93.91;98363.53;5032545;28;20451;-49
2023/10/26 03:30:11;;;;;;;0.30;0.20;;;;;;;13.01;94.75;98363.09;5032201;28;20451;-48
2023/10/26 03:32:38;;;;;;;0.30;0.20;;;;;;;12.90;94.10;98359.50;5032277;28;20422;-48
2023/10/26 03:35:05;;;;;;;0.30;0.20;;;;;;;12.87;94.49;98367.66;5031967;28;20517;-49
2023/10/26 03:37:31;;;;;;;0.30;0.20;;;;;;;13.17;93.58;98354.91;5032618;28;20423;-49
2023/10/26 03:39:57;;;;;;;0.30;0.20;;;;;;;13.06;92.20;98357.47;5032342;28;20542;-49
2023/10/26 03:42:24;;;;;;;0.30;0.20;;;;;;;13.00;93.48;98369.38;5032498;28;20480;-49
2023/10/26 03:44:50;;;;;;;0.30;0.20;;;;;;;12.92;92.79;98368.22;5032056;28;20443;-49
2023/10/26 03:47:18;;;;;;;0.30;0.20;;;;;;;12.73;93.21;98366.81;5032193;28;20894;-48
2023/10/26 03:49:45;;;;;;;0.60;0.60;;;;;;;12.71;93.14;98368.72;5033185;28;20452;-49
2023/10/26 03:52:12;;;;;;;0.30;0.20;;;;;;;12.79;93.25;98362.88;5030615;28;21064;-49
2023/10/26 03:54:38;;;;;;;0.30;0.20;;;;;;;12.81;94.06;98360.09;5034294;28;20458;-49
2023/10/26 03:57:06;;;;;;;0.30;0.20;;;;;;;12.71;94.53;98354.53;5025200;28;20427;-49
2023/10/26 03:59:32;;;;;;;0.30;0.20;;;;;;;12.68;95.61;98352.94;5031611;28;20805;-49
2023/10/26 04:01:59;;;;;;;0.30;0.30;;;;;;;12.64;96.22;98370.13;5036025;28;20976;-52
2023/10/26 04:04:25;;;;;;;0.30;0.20;;;;;;;12.67;96.46;98377.91;5036050;28;20447;-52
2023/10/26 04:06:52;;;;;;;0.30;0.20;;;;;;;12.89;95.41;98382.63;5036060;28;20447;-52
2023/10/26 04:09:18;;;;;;;0.30;0.20;;;;;;;12.75;95.60;98382.72;5035791;28;20468;-52
2023/10/26 04:11:45;;;;;;;0.30;0.20;;;;;;;12.80;95.52;98385.91;5035755;28;20477;-52
2023/10/26 04:14:12;;;;;;;0.30;0.20;;;;;;;13.00;94.30;98382.72;5035706;28;20870;-52
2023/10/26 04:16:38;;;;;;;0.30;0.20;;;;;;;12.84;94.70;98383.88;5035603;28;20491;-52
2023/10/26 04:19:05;;;;;;;0.30;0.20;;;;;;;12.85;95.96;98383.78;5035488;28;20422;-52
2023/10/26 04:21:33;;;;;;;0.30;0.20;;;;;;;12.93;95.01;98388.59;5027227;28;20447;-52
2023/10/26 04:24:00;;;;;;;0.30;0.20;;;;;;;12.91;95.28;98382.53;5032236;28;20479;-52
2023/10/26 04:26:26;;;;;;;0.30;0.20;;;;;;;12.85;94.75;98388.25;5035562;28;20448;-52
2023/10/26 04:28:53;;;;;;;0.30;0.20;;;;;;;12.70;94.55;98383.03;5035253;28;20807;-52
2023/10/26 04:31:20;;;;;;;0.30;0.20;;;;;;;12.78;95.21;98373.66;5035375;28;20475;-52
2023/10/26 04:33:48;;;;;;;0.30;0.20;;;;;;;12.79;94.19;98378.03;5035630;28;20430;-52
2023/10/26 04:36:15;;;;;;;0.30;0.20;;;;;;;12.67;94.04;98372.56;5035609;28;20905;-52
2023/10/26 04:38:41;;;;;;;0.30;0.20;;;;;;;12.79;93.07;98380.69;5035355;28;20453;-52
2023/10/26 04:41:08;;;;;;;0.30;0.20;;;;;;;12.88;92.88;98375.56;5035488;28;20517;-52
2023/10/26 04:43:34;;;;;;;0.30;0.20;;;;;;;12.63;93.03;98371.09;5017623;28;20969;-51
2023/10/26 04:46:01;;;;;;;0.30;0.20;;;;;;;12.67;93.01;98369.06;5035542;28;20432;-52
2023/10/26 04:48:27;;;;;;;0.30;0.20;;;;;;;12.61;92.94;98366.78;5035134;28;20428;-52
2023/10/26 04:50:55;;;;;;;0.30;0.20;;;;;;;12.66;92.86;98360.19;5032268;28;20482;-52
2023/10/26 04:53:22;;;;;;;0.30;0.20;;;;;;;12.53;94.12;98356.66;5033290;28;20433;-52
2023/10/26 04:55:48;;;;;;;0.30;0.20;;;;;;;12.41;93.12;98350.34;5027640;28;20484;-52
2023/10/26 04:58:14;;;;;;;0.30;0.20;;;;;;;12.35;94.13;98361.44;5019985;28;20429;-51
2023/10/26 05:00:41;;;;;;;0.30;0.20;;;;;;;12.39;93.59;98365.59;5034430;28;20988;-52
2023/10/26 05:03:07;;;;;;;0.30;0.20;;;;;;;12.34;94.15;98358.88;5022357;28;20978;-52
2023/10/26 05:05:34;;;;;;;0.30;0.20;;;;;;;12.16;94.62;98347.59;5034967;28;20423;-52
2023/10/26 05:08:01;;;;;;;0.30;0.30;;;;;;;12.29;94.84;98352.97;5017448;28;20451;-51
2023/10/26 05:10:28;;;;;;;0.30;0.20;;;;;;;12.32;94.43;98366.06;5034907;28;20450;-52
2023/10/26 05:12:54;;;;;;;0.30;0.20;;;;;;;12.29;94.83;98369.81;5034687;28;21007;-52
2023/10/26 05:15:21;;;;;;;0.30;0.20;;;;;;;12.23;94.50;98372.88;5034977;28;20465;-52
2023/10/26 05:17:48;;;;;;;0.30;0.20;;;;;;;12.30;95.25;98379.50;5034709;28;20426;-52
2023/10/26 05:20:14;;;;;;;0.30;0.20;;;;;;;12.19;95.62;98375.84;5034765;28;20426;-52
2023/10/26 05:22:41;;;;;;;0.30;0.20;;;;;;;12.30;95.56;98373.31;5022692;28;20502;-52
2023/10/26 05:25:10;;;;;;;0.30;0.20;;;;;;;12.38;95.93;98373.69;5034649;28;20526;-52
2023/10/26 05:27:37;;;;;;;0.30;0.20;;;;;;;12.38;95.62;98365.69;5034715;28;20474;-52
2023/10/26 05:30:07;;;;;;;0.30;0.20;;;;;;;12.40;95.55;98363.78;5034731;28;20459;-52
2023/10/26 05:32:34;;;;;;;0.30;0.20;;;;;;;12.65;94.66;98369.16;5034598;28;20822;-52
2023/10/26 05:35:00;;;;;;;0.30;0.20;;;;;;;12.40;94.58;98369.09;5034396;28;20434;-52
2023/10/26 05:37:27;;;;;;;0.30;0.20;;;;;;;12.24;95.81;98360.44;5034494;28;20538;-52
2023/10/26 05:39:53;;;;;;;0.30;0.20;;;;;;;12.26;95.58;98361.19;5034134;28;20978;-51
2023/10/26 05:42:20;;;;;;;0.30;0.20;;;;;;;12.44;95.24;98354.59;5034494;28;20450;-51
2023/10/26 05:44:46;;;;;;;0.30;0.20;;;;;;;12.17;95.41;98341.31;5034347;28;20466;-51
2023/10/26 05:47:13;;;;;;;0.30;0.20;;;;;;;12.30;94.49;98338.69;5034426;28;20422;-52
2023/10/26 05:49:39;;;;;;;0.30;0.20;;;;;;;12.08;95.18;98344.59;5034129;28;20479;-51
2023/10/26 05:52:06;;;;;;;0.30;0.20;;;;;;;11.95;95.85;98343.72;5028534;28;20532;-52
2023/10/26 05:54:32;;;;;;;0.30;0.20;;;;;;;11.86;96.43;98350.47;5032905;28;20455;-52
2023/10/26 05:57:00;;;;;;;0.33;0.20;;;;;;;11.89;96.83;98346.75;5023310;28;20550;-52
2023/10/26 05:59:26;;;;;;;0.30;0.20;;;;;;;11.94;96.57;98353.50;5029052;28;20450;-52
2023/10/26 06:01:53;;;;;;;0.30;0.20;;;;;;;11.88;96.78;98343.25;5025669;28;20490;-52
2023/10/26 06:04:19;;;;;;;0.30;0.20;;;;;;;11.73;96.55;98339.72;5028921;28;20529;-51
2023/10/26 06:06:46;;;;;;;0.30;0.20;;;;;;;11.86;95.83;98347.81;5033944;28;20539;-51
2023/10/26 06:09:12;;;;;;;0.30;0.20;;;;;;;11.84;95.68;98344.41;5033509;28;20552;-51
2023/10/26 06:11:39;;;;;;;0.30;0.20;;;;;;;11.90;95.55;98348.47;5033425;28;20495;-51
2023/10/26 06:14:06;;;;;;;0.30;0.20;;;;;;;11.79;95.50;98365.16;5033031;28;20452;-51
2023/10/26 06:16:32;;;;;;;0.30;0.20;;;;;;;11.69;96.56;98366.66;5033678;28;20462;-51
2023/10/26 06:18:59;;;;;;;0.30;0.20;;;;;;;11.63;96.66;98370.53;5033433;28;20426;-51
2023/10/26 06:21:25;;;;;;;0.30;0.20;;;;;;;11.68;96.75;98359.63;5026084;28;20478;-52
2023/10/26 06:23:51;;;;;;;0.30;0.20;;;;;;;11.69;96.42;98364.00;5029580;28;20478;-51
2023/10/26 06:26:18;;;;;;;0.30;0.20;;;;;;;11.65;96.08;98362.47;5033638;28;20446;-51
2023/10/26 06:28:48;;;;;;;0.30;0.20;;;;;;;11.72;96.40;98369.97;5033446;28;20477;-52
2023/10/26 06:31:14;;;;;;;0.30;0.20;;;;;;;11.77;95.96;98364.34;5033485;28;20506;-51
2023/10/26 06:33:42;;;;;;;0.30;0.20;;;;;;;11.63;96.39;98372.34;5033063;28;20470;-51
2023/10/26 06:36:10;;;;;;;0.30;0.20;;;;;;;11.45;97.08;98377.91;5033095;28;21018;-51
2023/10/26 06:38:40;;;;;;;0.30;0.20;;;;;;;11.46;97.00;98376.94;5033048;28;20426;-51
2023/10/26 06:41:08;;;;;;;0.30;0.20;;;;;;;11.39;97.03;98369.47;5033069;28;20446;-51
2023/10/26 06:43:36;;;;;;;0.30;0.20;;;;;;;11.46;97.35;98368.09;5033231;28;20451;-51
2023/10/26 06:46:04;;;;;;;0.30;0.20;;;;;;;11.41;96.85;98365.75;5033290;28;20447;-51
2023/10/26 06:48:30;;;;;;;0.30;0.20;;;;;;;11.33;96.85;98362.69;5032907;28;20458;-51
2023/10/26 06:51:02;;;;;;;0.30;0.20;;;;;;;11.09;97.18;98367.72;5029740;28;20471;-51
2023/10/26 06:53:29;;;;;;;0.30;0.20;;;;;;;11.24;97.51;98364.16;5032082;28;20433;-51
2023/10/26 06:55:56;;;;;;;0.30;0.20;;;;;;;11.23;98.11;98372.19;5028461;28;20494;-51
2023/10/26 06:58:23;;;;;;;0.30;0.20;;;;;;;11.21;97.11;98369.63;5019678;28;20539;-51
2023/10/26 07:00:50;;;;;;;0.30;0.20;;;;;;;11.27;98.41;98371.94;5032696;28;20511;-51
2023/10/26 07:03:19;;;;;;;0.30;0.20;;;;;;;11.28;98.70;98376.28;5019464;28;20437;-51
2023/10/26 07:05:47;;;;;;;0.30;0.20;;;;;;;11.51;97.35;98360.69;5032758;28;20427;-51
2023/10/26 07:08:14;;;;;;;0.30;0.20;;;;;;;11.50;98.10;98351.84;5020127;28;20458;-51
2023/10/26 07:10:40;;;;;;;0.30;0.20;;;;;;;11.78;97.94;98358.06;5032743;28;20537;-52
2023/10/26 07:13:08;;;;;;;0.30;0.20;;;;;;;11.77;96.81;98351.88;5032469;28;20821;-52
2023/10/26 07:15:35;;;;;;;0.30;0.20;;;;;;;11.86;95.86;98359.31;5032188;28;20991;-51
2023/10/26 07:18:03;;;;;;;0.30;0.20;;;;;;;11.89;96.18;98357.41;5032763;28;20476;-51
2023/10/26 07:20:30;;;;;;;0.30;0.20;;;;;;;11.74;95.72;98359.22;5032304;28;20508;-51
2023/10/26 07:22:56;;;;;;;0.30;0.20;;;;;;;11.68;95.91;98362.28;5020841;28;20451;-51
2023/10/26 07:25:23;;;;;;;0.30;0.20;;;;;;;11.59;96.64;98358.41;5032165;28;20452;-51
2023/10/26 07:27:49;;;;;;;0.30;0.20;;;;;;;11.55;97.14;98356.88;5032533;28;20534;-51
2023/10/26 07:30:16;;;;;;;0.30;0.20;;;;;;;11.53;97.98;98348.16;5032004;28;20442;-51
2023/10/26 07:32:42;;;;;;;0.30;0.20;;;;;;;11.64;97.78;98358.94;5032500;28;20456;-51
2023/10/26 07:35:09;;;;;;;0.30;0.20;;;;;;;11.78;96.57;98345.59;5032167;28;20904;-52
2023/10/26 07:37:35;;;;;;;0.30;0.20;;;;;;;11.74;97.47;98353.91;5032345;28;20466;-51
2023/10/26 07:40:02;;;;;;;0.30;0.20;;;;;;;11.84;97.06;98350.56;5032040;28;20966;-52
2023/10/26 07:42:49;;;;;;;0.30;0.20;;;;;;;11.86;96.71;98343.34;5032399;28;20447;-51
2023/10/26 07:45:15;;;;;;;0.30;0.20;;;;;;;11.77;96.68;98341.22;5032082;28;20798;-51
2023/10/26 07:47:42;;;;;;;0.30;0.20;;;;;;;11.84;96.78;98339.06;5032353;28;20444;-51
2023/10/26 07:50:08;;;;;;;0.30;0.20;;;;;;;11.95;96.44;98341.91;5032134;28;20480;-51
2023/10/26 07:52:34;;;;;;;0.30;0.20;;;;;;;11.86;96.15;98347.81;5026810;28;20952;-51
2023/10/26 07:55:02;;;;;;;0.30;0.20;;;;;;;11.78;97.54;98350.06;5027544;28;20423;-51
2023/10/26 07:57:29;;;;;;;0.30;0.20;;;;;;;11.90;97.02;98354.63;5002677;28;20572;-51
2023/10/26 07:59:56;;;;;;;0.30;0.20;;;;;;;11.90;96.59;98348.47;5031317;28;20422;-52
2023/10/26 08:02:22;;;;;;;0.30;0.20;;;;;;;11.75;96.93;98347.63;5019954;28;20468;-51
2023/10/26 08:04:49;;;;;;;0.30;0.20;;;;;;;11.80;97.14;98351.75;5030987;28;20448;-52
2023/10/26 08:07:16;;;;;;;0.30;0.20;;;;;;;12.01;96.00;98356.59;5032040;28;20446;-52
2023/10/26 08:09:42;;;;;;;0.30;0.20;;;;;;;12.05;96.25;98348.31;5031847;28;20454;-52
2023/10/26 08:12:10;;;;;;;0.30;0.20;;;;;;;12.09;95.38;98347.16;5032314;28;20537;-52
2023/10/26 08:14:36;;;;;;;0.30;0.20;;;;;;;12.09;96.08;98341.84;5032040;28;20522;-52
2023/10/26 08:17:25;;;;;;;0.30;0.20;;;;;;;12.06;95.52;98334.06;5031806;28;20495;-52
2023/10/26 08:19:53;;;;;;;0.30;0.20;;;;;;;12.29;95.34;98334.31;5031831;28;20458;-52
2023/10/26 08:22:23;;;;;;;0.30;0.20;;;;;;;12.34;94.82;98332.22;5019462;28;20456;-51
2023/10/26 08:24:50;;;;;;;0.30;0.20;;;;;;;12.28;94.92;98340.59;5031879;28;20491;-52
2023/10/26 08:27:16;;;;;;;0.30;0.20;;;;;;;12.15;95.09;98340.56;5031705;28;20452;-52
2023/10/26 08:29:43;;;;;;;0.30;0.20;;;;;;;12.33;94.80;98339.34;5031823;28;20430;-51
2023/10/26 08:32:09;;;;;;;0.30;0.20;;;;;;;12.12;94.90;98336.31;5031743;28;20482;-52
2023/10/26 08:34:37;;;;;;;0.30;0.20;;;;;;;12.10;95.58;98348.88;5031708;28;20447;-51
2023/10/26 08:37:03;;;;;;;0.30;0.20;;;;;;;12.30;94.32;98349.34;5034620;28;20501;-52
2023/10/26 08:39:32;;;;;;;0.30;0.20;;;;;;;12.33;94.94;98355.31;5035693;28;20477;-52
2023/10/26 08:42:01;;;;;;;0.30;0.20;;;;;;;12.51;94.06;98360.38;5036159;28;20474;-51
2023/10/26 08:44:29;;;;;;;0.30;0.20;;;;;;;12.48;94.53;98371.25;5035732;28;20451;-51
2023/10/26 08:47:02;;;;;;;0.30;0.20;;;;;;;12.59;95.41;98380.22;5035270;28;20545;-52
2023/10/26 08:49:30;;;;;;;0.30;0.20;;;;;;;12.67;94.71;98377.91;5035317;28;20448;-51
2023/10/26 08:51:57;;;;;;;0.30;0.20;;;;;;;12.66;95.07;98376.19;5029373;28;20529;-52
2023/10/26 08:54:26;;;;;;;0.30;0.20;;;;;;;12.94;93.04;98384.97;5035244;28;20805;-52
2023/10/26 08:56:53;;;;;;;0.30;0.20;;;;;;;12.84;93.85;98392.75;5024123;28;20579;-52
2023/10/26 08:59:22;;;;;;;0.30;0.20;;;;;;;12.97;94.20;98400.75;5029438;28;20430;-52
2023/10/26 09:01:50;;;;;;;0.30;0.20;;;;;;;12.99;94.48;98404.16;5027344;28;20484;-52
2023/10/26 09:04:16;;;;;;;0.30;0.20;;;;;;;12.94;94.11;98406.31;5029740;28;20456;-52
2023/10/26 09:06:47;;;;;;;0.30;0.20;;;;;;;13.07;94.05;98407.19;5034850;28;20455;-52
2023/10/26 09:09:14;;;;;;;0.30;0.20;;;;;;;13.07;93.91;98407.19;5034980;28;20510;-51
2023/10/26 09:11:42;;;;;;;0.30;0.20;;;;;;;13.04;93.02;98408.25;5034969;28;20533;-52
2023/10/26 09:14:16;;;;;;;0.30;0.20;;;;;;;13.14;93.97;98413.78;5034558;28;20462;-52
2023/10/26 09:16:45;;;;;;;0.30;0.20;;;;;;;13.06;93.27;98413.47;5034720;28;20458;-52
2023/10/26 09:19:16;;;;;;;0.30;0.20;;;;;;;12.91;94.35;98402.03;5034757;28;20427;-52
2023/10/26 09:21:55;;;;;;;0.30;0.20;;;;;;;12.89;94.36;98408.44;5024669;28;20847;-52
2023/10/26 09:24:27;;;;;;;0.30;0.20;;;;;;;12.91;94.36;98401.19;5034371;28;20421;-52
2023/10/26 09:26:55;;;;;;;0.30;0.20;;;;;;;12.90;94.42;98416.34;5034390;28;20440;-51
2023/10/26 09:29:35;;;;;;;0.30;0.20;;;;;;;13.04;94.30;98404.72;5034585;28;20935;-52
2023/10/26 09:32:02;;;;;;;0.30;0.20;;;;;;;13.10;94.06;98390.09;5034412;28;20448;-51
2023/10/26 09:34:29;;;;;;;0.30;0.20;;;;;;;13.16;93.91;98384.34;5034562;28;20426;-52
2023/10/26 09:37:03;;;;;;;0.30;0.20;;;;;;;12.90;93.93;98381.66;5033908;28;20564;-52
2023/10/26 09:39:34;;;;;;;0.30;0.20;;;;;;;12.71;94.35;98367.88;5033902;28;20934;-52
2023/10/26 09:42:01;;;;;;;0.30;0.20;;;;;;;12.94;94.58;98356.50;5034173;28;20434;-51
2023/10/26 09:44:29;;;;;;;0.30;0.20;;;;;;;12.79;95.38;98360.22;5034595;28;20455;-51
2023/10/26 09:46:57;;;;;;;0.30;0.20;;;;;;;12.73;95.38;98355.28;5033166;28;20513;-52
2023/10/26 09:49:25;;;;;;;0.30;0.20;;;;;;;12.85;95.49;98366.94;5034164;28;20433;-52
2023/10/26 09:51:51;;;;;;;0.30;0.20;;;;;;;12.88;95.03;98370.22;5028909;28;20832;-52
2023/10/26 09:54:20;;;;;;;0.30;0.20;;;;;;;12.74;95.07;98362.31;5034093;28;20898;-52
2023/10/26 09:56:56;;;;;;;0.30;0.20;;;;;;;12.72;96.70;98378.44;5023083;28;20994;-52
2023/10/26 09:59:24;;;;;;;0.40;0.30;;;;;;;12.94;95.94;98382.31;5028634;28;20785;-52
2023/10/26 10:01:50;;;;;;;0.30;0.20;;;;;;;12.75;95.03;98380.06;5026258;28;20929;-49
2023/10/26 10:04:34;;;;;;;0.30;0.20;;;;;;;12.85;95.87;98377.59;5014165;28;20515;-49
2023/10/26 10:07:02;;;;;;;0.30;0.20;;;;;;;12.75;95.98;98385.38;5014143;28;20571;-49
2023/10/26 10:09:30;;;;;;;0.30;0.20;;;;;;;12.81;97.40;98373.44;5027590;28;20430;-49
2023/10/26 10:12:06;;;;;;;0.30;0.20;;;;;;;12.72;97.11;98358.91;5025518;28;20472;-49
2023/10/26 10:14:47;;;;;;;0.30;0.20;;;;;;;12.64;97.38;98367.44;5028241;28;20456;-49
2023/10/26 10:17:15;;;;;;;0.30;0.20;;;;;;;12.68;96.39;98360.94;5028476;28;20483;-49
2023/10/26 10:19:43;;;;;;;0.30;0.20;;;;;;;12.71;96.42;98360.72;5033881;28;20422;-49
2023/10/26 10:22:36;;;;;;;0.30;0.20;;;;;;;12.81;96.54;98363.63;5021924;28;20551;-49
2023/10/26 10:25:03;;;;;;;0.30;0.20;;;;;;;12.72;96.19;98372.25;5033778;28;20539;-49
2023/10/26 10:27:31;;;;;;;0.30;0.20;;;;;;;12.72;96.01;98367.75;5033363;28;20444;-49
2023/10/26 10:30:03;;;;;;;0.30;0.20;;;;;;;12.93;95.38;98381.44;5033846;28;20463;-49
2023/10/26 10:32:53;;;;;;;0.30;0.20;;;;;;;13.14;95.81;98372.91;5001250;28;20445;-49
2023/10/26 10:35:39;;;;;;;0.30;0.20;;;;;;;13.10;96.13;98356.28;5030185;28;20430;-49
2023/10/26 10:38:17;;;;;;;0.30;0.20;;;;;;;13.36;96.28;98358.97;5033586;28;20545;-49
2023/10/26 10:40:55;;;;;;;0.30;0.20;;;;;;;13.44;93.95;98356.59;5033610;28;20452;-49
2023/10/26 10:43:38;;;;;;;0.30;0.20;;;;;;;13.49;93.07;98354.44;5033234;28;20992;-49
2023/10/26 10:46:21;;;;;;;0.30;0.20;;;;;;;13.53;91.62;98350.59;5021705;28;20448;-49
2023/10/26 10:49:03;;;;;;;0.30;0.20;;;;;;;13.79;91.92;98346.88;5009206;28;20553;-49
2023/10/26 10:51:39;;;;;;;0.30;0.20;;;;;;;13.93;90.70;98349.41;5025232;28;20454;-49
2023/10/26 10:54:12;;;;;;;0.30;0.20;;;;;;;14.18;89.74;98343.09;5024385;28;20451;-49
2023/10/26 10:56:58;;;;;;;0.30;0.20;;;;;;;13.93;89.85;98344.06;5025391;28;20488;-49
2023/10/26 10:59:30;;;;;;;0.30;0.20;;;;;;;14.03;90.49;98341.56;5025864;28;20422;-49
2023/10/26 11:02:08;;;;;;;0.30;0.20;;;;;;;14.16;90.78;98349.53;5021549;28;20545;-50
2023/10/26 11:04:50;;;;;;;0.30;0.20;;;;;;;14.02;92.03;98341.69;5033139;28;20841;-49
2023/10/26 11:07:30;;;;;;;0.30;0.20;;;;;;;14.00;92.80;98343.63;5033047;28;20534;-49
2023/10/26 11:09:58;;;;;;;0.30;0.20;;;;;;;14.03;92.54;98328.22;5032880;28;20452;-50
2023/10/26 11:12:24;;;;;;;0.30;0.20;;;;;;;14.05;93.83;98328.09;5031270;28;20430;-49
2023/10/26 11:14:52;;;;;;;0.30;0.20;;;;;;;14.04;95.48;98323.72;5013048;28;20804;-50
2023/10/26 11:17:20;;;;;;;0.30;0.20;;;;;;;14.00;97.53;98309.75;5014936;28;20550;-49
2023/10/26 11:19:47;;;;;;;0.30;0.20;;;;;;;14.01;98.34;98302.59;5032893;28;20931;-49
2023/10/26 11:22:15;;;;;;;0.30;0.20;;;;;;;14.04;99.45;98286.31;5032802;28;20533;-49
2023/10/26 11:24:43;;;;;;;0.30;0.20;;;;;;;14.00;99.39;98295.53;5032883;28;20426;-49
2023/10/26 11:27:17;;;;;;;0.30;0.20;;;;;;;13.91;99.84;98297.91;5032577;28;20513;-49
2023/10/26 11:29:58;;;;;;;0.30;0.20;;;;;;;13.80;100.00;98284.50;5032523;28;20542;-49
2023/10/26 11:32:25;;;;;;;0.30;0.20;;;;;;;13.60;100.00;98282.47;5032613;28;20443;-49
2023/10/26 11:35:08;;;;;;;0.30;0.20;;;;;;;13.86;100.00;98288.56;5032410;28;20438;-49
2023/10/26 11:37:36;;;;;;;0.30;0.20;;;;;;;13.55;100.00;98273.91;5009134;28;20487;-49
2023/10/26 11:40:07;;;;;;;0.30;0.20;;;;;;;13.46;100.00;98263.94;5032127;28;20462;-49